sensor_id;sensor_type;location;lat;lon;timestamp;pressure;altitude;pressure_sealevel;temperature;humidity
47366;BME280;33105;47.964;7.982;2023-06-22T00:01:27;96658.25;;;18.77;94.26
47366;BME280;33105;47.964;7.982;2023-06-22T00:04:31;96660.19;;;18.77;93.29
47366;BME280;33105;47.964;7.982;2023-06-22T00:07:33;96663.59;;;18.74;94.28
47366;BME280;33105;47.964;7.982;2023-06-22T00:10:35;96679.38;;;18.73;93.87
47366;BME280;33105;47.964;7.982;2023-06-22T00:13:37;96670.38;;;18.67;92.75
47366;BME280;33105;47.964;7.982;2023-06-22T00:16:39;96673.03;;;18.59;94.30
47366;BME280;33105;47.964;7.982;2023-06-22T00:19:41;96675.00;;;18.58;94.10
47366;BME280;33105;47.964;7.982;2023-06-22T00:22:42;96686.59;;;18.60;93.01
47366;BME280;33105;47.964;7.982;2023-06-22T00:25:43;96679.47;;;18.46;94.99
47366;BME280;33105;47.964;7.982;2023-06-22T00:28:45;96674.06;;;18.41;94.68
47366;BME280;33105;47.964;7.982;2023-06-22T00:31:46;96678.34;;;18.24;94.88
47366;BME280;33105;47.964;7.982;2023-06-22T00:34:48;96664.88;;;18.31;95.23
47366;BME280;33105;47.964;7.982;2023-06-22T00:37:49;96671.69;;;18.25;94.11
47366;BME280;33105;47.964;7.982;2023-06-22T00:40:50;96671.19;;;18.23;95.01
47366;BME280;33105;47.964;7.982;2023-06-22T00:43:51;96672.00;;;18.24;94.48
47366;BME280;33105;47.964;7.982;2023-06-22T00:46:53;96665.88;;;18.35;93.04
47366;BME280;33105;47.964;7.982;2023-06-22T00:49:57;96676.00;;;18.40;92.77
47366;BME280;33105;47.964;7.982;2023-06-22T00:53:03;96665.22;;;18.30;92.75
47366;BME280;33105;47.964;7.982;2023-06-22T00:56:09;96653.44;;;18.24;92.44
47366;BME280;33105;47.964;7.982;2023-06-22T00:59:13;96667.34;;;18.55;90.77
47366;BME280;33105;47.964;7.982;2023-06-22T01:02:18;96669.94;;;18.52;90.85
47366;BME280;33105;47.964;7.982;2023-06-22T01:05:21;96670.03;;;18.47;91.98
47366;BME280;33105;47.964;7.982;2023-06-22T01:08:54;96672.94;;;18.42;91.48
47366;BME280;33105;47.964;7.982;2023-06-22T01:12:01;96668.16;;;18.33;92.71
47366;BME280;33105;47.964;7.982;2023-06-22T01:15:29;96670.41;;;18.31;92.63
47366;BME280;33105;47.964;7.982;2023-06-22T01:18:35;96669.09;;;18.29;93.47
47366;BME280;33105;47.964;7.982;2023-06-22T01:21:38;96673.44;;;18.21;92.87
47366;BME280;33105;47.964;7.982;2023-06-22T01:24:48;96666.66;;;18.27;92.41
47366;BME280;33105;47.964;7.982;2023-06-22T01:31:18;96666.38;;;18.15;92.47
47366;BME280;33105;47.964;7.982;2023-06-22T01:34:21;96667.13;;;18.07;93.51
47366;BME280;33105;47.964;7.982;2023-06-22T01:37:23;96664.19;;;18.04;93.06
47366;BME280;33105;47.964;7.982;2023-06-22T01:40:26;96648.16;;;18.14;91.61
47366;BME280;33105;47.964;7.982;2023-06-22T01:43:29;96651.81;;;18.23;90.82
47366;BME280;33105;47.964;7.982;2023-06-22T01:46:32;96648.56;;;18.08;91.75
47366;BME280;33105;47.964;7.982;2023-06-22T01:49:33;96643.00;;;17.99;91.93
47366;BME280;33105;47.964;7.982;2023-06-22T01:52:34;96643.41;;;17.92;92.17
47366;BME280;33105;47.964;7.982;2023-06-22T01:55:38;96636.53;;;18.04;91.29
47366;BME280;33105;47.964;7.982;2023-06-22T01:58:51;96638.69;;;18.29;88.59
47366;BME280;33105;47.964;7.982;2023-06-22T02:02:06;96622.91;;;18.52;86.62
47366;BME280;33105;47.964;7.982;2023-06-22T02:05:11;96619.88;;;18.40;88.03
47366;BME280;33105;47.964;7.982;2023-06-22T02:08:20;96627.97;;;18.58;86.20
47366;BME280;33105;47.964;7.982;2023-06-22T02:11:25;96631.22;;;18.29;88.19
47366;BME280;33105;47.964;7.982;2023-06-22T02:14:28;96625.41;;;18.17;89.06
47366;BME280;33105;47.964;7.982;2023-06-22T02:17:30;96630.69;;;18.05;90.03
47366;BME280;33105;47.964;7.982;2023-06-22T02:20:38;96624.59;;;17.94;90.35
47366;BME280;33105;47.964;7.982;2023-06-22T02:23:40;96618.03;;;17.90;90.80
47366;BME280;33105;47.964;7.982;2023-06-22T02:26:42;96625.41;;;17.95;90.82
47366;BME280;33105;47.964;7.982;2023-06-22T02:29:45;96614.47;;;17.90;90.83
47366;BME280;33105;47.964;7.982;2023-06-22T02:32:46;96603.28;;;17.95;90.28
47366;BME280;33105;47.964;7.982;2023-06-22T02:35:50;96594.91;;;17.86;90.56
47366;BME280;33105;47.964;7.982;2023-06-22T02:38:56;96590.50;;;17.85;90.66
47366;BME280;33105;47.964;7.982;2023-06-22T02:42:02;96589.69;;;17.85;90.48
47366;BME280;33105;47.964;7.982;2023-06-22T02:45:03;96579.91;;;17.79;90.45
47366;BME280;33105;47.964;7.982;2023-06-22T02:48:04;96589.66;;;17.76;90.73
47366;BME280;33105;47.964;7.982;2023-06-22T02:51:06;96580.66;;;17.71;90.86
47366;BME280;33105;47.964;7.982;2023-06-22T02:54:09;96572.97;;;17.67;90.77
47366;BME280;33105;47.964;7.982;2023-06-22T02:57:10;96573.88;;;17.63;90.92
47366;BME280;33105;47.964;7.982;2023-06-22T03:00:15;96569.28;;;17.58;91.62
47366;BME280;33105;47.964;7.982;2023-06-22T03:03:21;96572.56;;;17.60;92.02
47366;BME280;33105;47.964;7.982;2023-06-22T03:06:22;96575.31;;;17.60;91.40
47366;BME280;33105;47.964;7.982;2023-06-22T03:09:25;96569.72;;;17.65;91.31
47366;BME280;33105;47.964;7.982;2023-06-22T03:12:26;96574.50;;;17.60;91.24
47366;BME280;33105;47.964;7.982;2023-06-22T03:15:29;96565.53;;;17.54;92.04
47366;BME280;33105;47.964;7.982;2023-06-22T03:18:32;96570.03;;;17.50;92.09
47366;BME280;33105;47.964;7.982;2023-06-22T03:21:34;96576.38;;;17.51;92.34
47366;BME280;33105;47.964;7.982;2023-06-22T03:24:35;96565.94;;;17.48;92.92
47366;BME280;33105;47.964;7.982;2023-06-22T03:27:39;96558.78;;;17.47;92.46
47366;BME280;33105;47.964;7.982;2023-06-22T03:30:42;96563.50;;;17.46;92.96
47366;BME280;33105;47.964;7.982;2023-06-22T03:33:43;96559.22;;;17.40;92.24
47366;BME280;33105;47.964;7.982;2023-06-22T03:36:45;96546.31;;;17.35;92.39
47366;BME280;33105;47.964;7.982;2023-06-22T03:39:46;96551.84;;;17.49;92.12
47366;BME280;33105;47.964;7.982;2023-06-22T03:42:49;96550.81;;;17.45;92.54
47366;BME280;33105;47.964;7.982;2023-06-22T03:45:50;96549.94;;;17.58;91.67
47366;BME280;33105;47.964;7.982;2023-06-22T03:48:51;96559.50;;;17.52;91.89
47366;BME280;33105;47.964;7.982;2023-06-22T03:51:52;96552.84;;;17.53;92.25
47366;BME280;33105;47.964;7.982;2023-06-22T03:54:56;96549.88;;;17.50;92.48
47366;BME280;33105;47.964;7.982;2023-06-22T03:57:57;96549.69;;;17.46;92.83
47366;BME280;33105;47.964;7.982;2023-06-22T04:00:59;96551.22;;;17.52;92.92
47366;BME280;33105;47.964;7.982;2023-06-22T04:04:03;96547.44;;;17.48;93.01
47366;BME280;33105;47.964;7.982;2023-06-22T04:07:05;96550.16;;;17.62;92.49
47366;BME280;33105;47.964;7.982;2023-06-22T04:10:07;96541.84;;;17.62;92.48
47366;BME280;33105;47.964;7.982;2023-06-22T04:13:08;96546.25;;;17.63;92.90
47366;BME280;33105;47.964;7.982;2023-06-22T04:16:10;96547.94;;;17.50;92.94
47366;BME280;33105;47.964;7.982;2023-06-22T04:19:11;96547.53;;;17.57;93.54
47366;BME280;33105;47.964;7.982;2023-06-22T04:22:17;96542.66;;;17.62;93.45
47366;BME280;33105;47.964;7.982;2023-06-22T04:25:18;96545.44;;;17.62;93.30
47366;BME280;33105;47.964;7.982;2023-06-22T04:28:20;96539.91;;;17.62;94.01
47366;BME280;33105;47.964;7.982;2023-06-22T04:31:21;96547.69;;;17.74;93.86
47366;BME280;33105;47.964;7.982;2023-06-22T04:34:23;96542.88;;;18.02;92.36
47366;BME280;33105;47.964;7.982;2023-06-22T04:37:27;96540.22;;;17.97;93.60
47366;BME280;33105;47.964;7.982;2023-06-22T04:40:28;96540.22;;;17.97;93.81
47366;BME280;33105;47.964;7.982;2023-06-22T04:43:30;96546.75;;;18.01;93.94
47366;BME280;33105;47.964;7.982;2023-06-22T04:46:31;96554.75;;;18.02;94.51
47366;BME280;33105;47.964;7.982;2023-06-22T04:49:39;96563.53;;;18.05;95.08
47366;BME280;33105;47.964;7.982;2023-06-22T04:52:41;96555.09;;;18.10;95.21
47366;BME280;33105;47.964;7.982;2023-06-22T04:55:42;96550.63;;;18.22;94.57
47366;BME280;33105;47.964;7.982;2023-06-22T04:58:46;96552.69;;;18.39;92.41
47366;BME280;33105;47.964;7.982;2023-06-22T05:01:47;96555.00;;;18.46;93.21
47366;BME280;33105;47.964;7.982;2023-06-22T05:04:49;96544.06;;;18.41;93.83
47366;BME280;33105;47.964;7.982;2023-06-22T05:07:52;96540.78;;;18.39;94.62
47366;BME280;33105;47.964;7.982;2023-06-22T05:11:00;96532.09;;;18.54;95.03
47366;BME280;33105;47.964;7.982;2023-06-22T05:14:01;96535.34;;;18.87;91.26
47366;BME280;33105;47.964;7.982;2023-06-22T05:17:03;96532.78;;;18.99;90.43
47366;BME280;33105;47.964;7.982;2023-06-22T05:20:05;96542.25;;;19.15;90.18
47366;BME280;33105;47.964;7.982;2023-06-22T05:23:07;96532.59;;;19.52;85.63
47366;BME280;33105;47.964;7.982;2023-06-22T05:26:08;96526.56;;;19.50;86.89
47366;BME280;33105;47.964;7.982;2023-06-22T05:29:11;96530.13;;;19.59;86.42
47366;BME280;33105;47.964;7.982;2023-06-22T05:32:12;96531.28;;;19.67;87.15
47366;BME280;33105;47.964;7.982;2023-06-22T05:35:13;96525.56;;;19.63;88.26
47366;BME280;33105;47.964;7.982;2023-06-22T05:38:15;96526.72;;;19.88;88.43
47366;BME280;33105;47.964;7.982;2023-06-22T05:41:16;96515.78;;;20.00;88.10
47366;BME280;33105;47.964;7.982;2023-06-22T05:44:18;96520.31;;;20.22;83.98
47366;BME280;33105;47.964;7.982;2023-06-22T05:47:19;96524.56;;;20.28;83.71
47366;BME280;33105;47.964;7.982;2023-06-22T05:50:20;96525.97;;;20.52;79.02
47366;BME280;33105;47.964;7.982;2023-06-22T05:53:22;96518.56;;;20.73;79.64
47366;BME280;33105;47.964;7.982;2023-06-22T05:56:23;96522.25;;;20.86;79.04
47366;BME280;33105;47.964;7.982;2023-06-22T05:59:24;96517.50;;;20.86;79.66
47366;BME280;33105;47.964;7.982;2023-06-22T06:02:26;96507.00;;;21.00;79.50
47366;BME280;33105;47.964;7.982;2023-06-22T06:05:27;96503.88;;;21.02;81.12
47366;BME280;33105;47.964;7.982;2023-06-22T06:08:29;96508.13;;;20.99;82.91
47366;BME280;33105;47.964;7.982;2023-06-22T06:11:30;96498.44;;;21.05;78.50
47366;BME280;33105;47.964;7.982;2023-06-22T06:14:32;96514.66;;;21.33;76.19
47366;BME280;33105;47.964;7.982;2023-06-22T06:17:33;96539.41;;;21.26;78.89
47366;BME280;33105;47.964;7.982;2023-06-22T06:20:34;96531.88;;;20.42;82.75
47366;BME280;33105;47.964;7.982;2023-06-22T06:23:36;96512.00;;;21.07;76.63
47366;BME280;33105;47.964;7.982;2023-06-22T06:26:46;96528.03;;;20.72;81.50
47366;BME280;33105;47.964;7.982;2023-06-22T06:29:48;96529.44;;;20.40;81.54
47366;BME280;33105;47.964;7.982;2023-06-22T06:32:50;96551.09;;;20.55;82.81
47366;BME280;33105;47.964;7.982;2023-06-22T06:35:51;96554.88;;;20.51;84.62
47366;BME280;33105;47.964;7.982;2023-06-22T06:38:52;96562.56;;;21.30;78.60
47366;BME280;33105;47.964;7.982;2023-06-22T06:41:54;96570.13;;;21.50;79.08
47366;BME280;33105;47.964;7.982;2023-06-22T06:44:55;96587.78;;;21.16;80.90
47366;BME280;33105;47.964;7.982;2023-06-22T06:47:56;96604.25;;;21.30;82.45
47366;BME280;33105;47.964;7.982;2023-06-22T06:50:58;96631.22;;;21.88;80.28
47366;BME280;33105;47.964;7.982;2023-06-22T06:53:59;96634.25;;;21.45;79.92
47366;BME280;33105;47.964;7.982;2023-06-22T06:57:00;96646.63;;;21.27;82.16
47366;BME280;33105;47.964;7.982;2023-06-22T07:00:05;96669.81;;;21.14;83.69
47366;BME280;33105;47.964;7.982;2023-06-22T07:03:11;96689.78;;;21.24;83.03
47366;BME280;33105;47.964;7.982;2023-06-22T07:06:13;96685.41;;;20.97;84.16
47366;BME280;33105;47.964;7.982;2023-06-22T07:09:14;96705.44;;;21.12;82.83
47366;BME280;33105;47.964;7.982;2023-06-22T07:12:15;96652.34;;;21.04;84.15
47366;BME280;33105;47.964;7.982;2023-06-22T07:15:17;96674.72;;;21.25;83.13
47366;BME280;33105;47.964;7.982;2023-06-22T07:18:18;96672.59;;;21.14;85.55
47366;BME280;33105;47.964;7.982;2023-06-22T07:21:19;96666.59;;;21.79;nan
47366;BME280;33105;47.964;7.982;2023-06-22T07:24:21;96644.97;;;21.26;83.00
47366;BME280;33105;47.964;7.982;2023-06-22T07:27:23;96678.28;;;21.34;85.23
47366;BME280;33105;47.964;7.982;2023-06-22T07:30:24;96668.78;;;21.73;81.25
47366;BME280;33105;47.964;7.982;2023-06-22T07:33:26;96661.66;;;21.85;80.12
47366;BME280;33105;47.964;7.982;2023-06-22T07:36:28;96674.19;;;21.70;82.03
47366;BME280;33105;47.964;7.982;2023-06-22T07:39:31;96681.75;;;21.61;82.39
47366;BME280;33105;47.964;7.982;2023-06-22T07:42:32;96680.47;;;21.88;82.48
47366;BME280;33105;47.964;7.982;2023-06-22T07:45:38;96696.81;;;22.19;81.92
47366;BME280;33105;47.964;7.982;2023-06-22T07:48:41;96685.81;;;22.43;80.65
47366;BME280;33105;47.964;7.982;2023-06-22T07:51:43;96645.84;;;22.27;80.69
47366;BME280;33105;47.964;7.982;2023-06-22T07:54:44;96630.34;;;21.96;81.85
47366;BME280;33105;47.964;7.982;2023-06-22T07:57:48;96634.66;;;22.15;79.33
47366;BME280;33105;47.964;7.982;2023-06-22T08:00:49;96637.34;;;22.44;79.51
47366;BME280;33105;47.964;7.982;2023-06-22T08:03:51;96624.66;;;22.34;80.46
47366;BME280;33105;47.964;7.982;2023-06-22T08:06:52;96611.38;;;22.19;81.54
47366;BME280;33105;47.964;7.982;2023-06-22T08:09:54;96600.50;;;22.59;78.57
47366;BME280;33105;47.964;7.982;2023-06-22T08:12:55;96572.19;;;23.27;74.61
47366;BME280;33105;47.964;7.982;2023-06-22T08:15:56;96571.28;;;23.35;77.94
47366;BME280;33105;47.964;7.982;2023-06-22T08:18:57;96565.84;;;24.03;74.46
47366;BME280;33105;47.964;7.982;2023-06-22T08:21:58;96579.75;;;24.27;67.51
47366;BME280;33105;47.964;7.982;2023-06-22T08:25:00;96589.00;;;24.44;68.37
47366;BME280;33105;47.964;7.982;2023-06-22T08:28:02;96583.44;;;24.59;65.86
47366;BME280;33105;47.964;7.982;2023-06-22T08:31:03;96567.94;;;24.46;67.46
47366;BME280;33105;47.964;7.982;2023-06-22T08:34:05;96551.44;;;24.41;69.64
47366;BME280;33105;47.964;7.982;2023-06-22T08:37:06;96540.78;;;24.90;66.58
47366;BME280;33105;47.964;7.982;2023-06-22T08:40:09;96544.59;;;25.14;66.67
47366;BME280;33105;47.964;7.982;2023-06-22T08:43:10;96546.94;;;25.12;70.72
47366;BME280;33105;47.964;7.982;2023-06-22T08:46:12;96542.19;;;24.96;68.40
47366;BME280;33105;47.964;7.982;2023-06-22T08:49:13;96527.72;;;24.94;67.59
47366;BME280;33105;47.964;7.982;2023-06-22T08:52:15;96532.22;;;25.30;69.12
47366;BME280;33105;47.964;7.982;2023-06-22T08:55:16;96529.41;;;25.46;63.21
47366;BME280;33105;47.964;7.982;2023-06-22T08:58:17;96528.59;;;25.30;67.43
47366;BME280;33105;47.964;7.982;2023-06-22T09:01:20;96520.44;;;25.56;62.65
47366;BME280;33105;47.964;7.982;2023-06-22T09:04:21;96526.25;;;25.63;61.38
47366;BME280;33105;47.964;7.982;2023-06-22T09:07:23;96517.78;;;25.28;68.42
47366;BME280;33105;47.964;7.982;2023-06-22T09:10:26;96511.31;;;25.59;64.57
47366;BME280;33105;47.964;7.982;2023-06-22T09:13:30;96502.50;;;25.92;62.24
47366;BME280;33105;47.964;7.982;2023-06-22T09:16:32;96501.91;;;25.48;66.92
47366;BME280;33105;47.964;7.982;2023-06-22T09:19:33;96497.50;;;25.31;68.92
47366;BME280;33105;47.964;7.982;2023-06-22T09:22:34;96497.13;;;25.49;68.33
47366;BME280;33105;47.964;7.982;2023-06-22T09:25:35;96496.41;;;25.36;68.20
47366;BME280;33105;47.964;7.982;2023-06-22T09:28:37;96480.75;;;25.66;70.82
47366;BME280;33105;47.964;7.982;2023-06-22T09:31:38;96478.03;;;25.89;68.46
47366;BME280;33105;47.964;7.982;2023-06-22T09:34:39;96478.84;;;25.90;65.75
47366;BME280;33105;47.964;7.982;2023-06-22T09:37:40;96482.72;;;26.24;64.68
47366;BME280;33105;47.964;7.982;2023-06-22T09:40:41;96475.16;;;26.66;63.81
47366;BME280;33105;47.964;7.982;2023-06-22T09:43:43;96465.28;;;26.95;63.90
47366;BME280;33105;47.964;7.982;2023-06-22T09:46:44;96470.44;;;26.70;65.01
47366;BME280;33105;47.964;7.982;2023-06-22T09:49:45;96469.03;;;26.38;62.77
47366;BME280;33105;47.964;7.982;2023-06-22T09:52:46;96456.53;;;26.77;64.24
47366;BME280;33105;47.964;7.982;2023-06-22T09:55:51;96464.38;;;27.14;64.55
47366;BME280;33105;47.964;7.982;2023-06-22T09:58:52;96456.34;;;26.90;60.72
47366;BME280;33105;47.964;7.982;2023-06-22T10:01:54;96458.50;;;26.96;62.21
47366;BME280;33105;47.964;7.982;2023-06-22T10:04:55;96467.25;;;27.18;63.85
47366;BME280;33105;47.964;7.982;2023-06-22T10:07:56;96461.28;;;27.23;64.66
47366;BME280;33105;47.964;7.982;2023-06-22T10:10:57;96453.81;;;27.30;62.58
47366;BME280;33105;47.964;7.982;2023-06-22T10:13:58;96451.22;;;27.71;62.64
47366;BME280;33105;47.964;7.982;2023-06-22T10:17:02;96433.31;;;28.16;57.68
47366;BME280;33105;47.964;7.982;2023-06-22T10:20:04;96431.47;;;27.94;59.50
47366;BME280;33105;47.964;7.982;2023-06-22T10:23:12;96431.69;;;27.82;57.21
47366;BME280;33105;47.964;7.982;2023-06-22T10:26:13;96420.50;;;29.00;53.15
47366;BME280;33105;47.964;7.982;2023-06-22T10:29:14;96433.91;;;28.73;55.43
47366;BME280;33105;47.964;7.982;2023-06-22T10:32:15;96450.00;;;29.17;53.61
47366;BME280;33105;47.964;7.982;2023-06-22T10:35:16;96442.38;;;29.21;53.04
47366;BME280;33105;47.964;7.982;2023-06-22T10:38:18;96441.72;;;28.50;50.09
47366;BME280;33105;47.964;7.982;2023-06-22T10:41:19;96440.31;;;28.29;51.62
47366;BME280;33105;47.964;7.982;2023-06-22T10:44:20;96451.47;;;28.22;53.52
47366;BME280;33105;47.964;7.982;2023-06-22T10:47:21;96455.28;;;28.07;56.06
47366;BME280;33105;47.964;7.982;2023-06-22T10:50:23;96471.38;;;27.80;56.24
47366;BME280;33105;47.964;7.982;2023-06-22T10:53:25;96472.34;;;27.61;56.73
47366;BME280;33105;47.964;7.982;2023-06-22T10:56:26;96473.63;;;27.67;56.49
47366;BME280;33105;47.964;7.982;2023-06-22T10:59:28;96474.66;;;27.86;58.44
47366;BME280;33105;47.964;7.982;2023-06-22T11:02:30;96500.41;;;28.21;59.19
47366;BME280;33105;47.964;7.982;2023-06-22T11:05:31;96523.81;;;28.02;58.42
47366;BME280;33105;47.964;7.982;2023-06-22T11:08:33;96542.75;;;27.79;57.94
47366;BME280;33105;47.964;7.982;2023-06-22T11:11:34;96558.34;;;27.76;59.23
47366;BME280;33105;47.964;7.982;2023-06-22T11:14:35;96552.09;;;27.87;59.46
47366;BME280;33105;47.964;7.982;2023-06-22T11:17:36;96544.09;;;27.89;58.46
47366;BME280;33105;47.964;7.982;2023-06-22T11:20:38;96543.25;;;28.15;59.73
47366;BME280;33105;47.964;7.982;2023-06-22T11:23:42;96532.03;;;28.15;58.18
47366;BME280;33105;47.964;7.982;2023-06-22T11:26:43;96531.97;;;28.11;57.69
47366;BME280;33105;47.964;7.982;2023-06-22T11:29:45;96534.97;;;28.96;59.81
47366;BME280;33105;47.964;7.982;2023-06-22T11:32:46;96513.50;;;29.65;48.15
47366;BME280;33105;47.964;7.982;2023-06-22T11:35:47;96537.56;;;29.11;47.32
47366;BME280;33105;47.964;7.982;2023-06-22T11:38:48;96541.06;;;29.42;46.69
47366;BME280;33105;47.964;7.982;2023-06-22T11:41:50;96558.50;;;29.62;39.85
47366;BME280;33105;47.964;7.982;2023-06-22T11:44:51;96555.84;;;29.35;39.99
47366;BME280;33105;47.964;7.982;2023-06-22T11:47:52;96524.44;;;29.30;41.15
47366;BME280;33105;47.964;7.982;2023-06-22T11:50:54;96528.34;;;29.15;36.69
47366;BME280;33105;47.964;7.982;2023-06-22T11:53:56;96531.47;;;29.50;36.94
47366;BME280;33105;47.964;7.982;2023-06-22T11:56:57;96514.84;;;29.34;36.33
47366;BME280;33105;47.964;7.982;2023-06-22T11:59:59;96519.63;;;29.30;38.54
47366;BME280;33105;47.964;7.982;2023-06-22T12:03:00;96513.72;;;28.98;39.11
47366;BME280;33105;47.964;7.982;2023-06-22T12:06:01;96517.44;;;28.72;36.96
47366;BME280;33105;47.964;7.982;2023-06-22T12:09:02;96507.75;;;28.66;37.04
47366;BME280;33105;47.964;7.982;2023-06-22T12:12:05;96508.56;;;28.67;37.98
47366;BME280;33105;47.964;7.982;2023-06-22T12:15:08;96520.59;;;28.64;40.63
47366;BME280;33105;47.964;7.982;2023-06-22T12:18:10;96516.06;;;28.56;38.32
47366;BME280;33105;47.964;7.982;2023-06-22T12:21:11;96510.44;;;28.56;42.67
47366;BME280;33105;47.964;7.982;2023-06-22T12:24:13;96528.88;;;28.87;39.91
47366;BME280;33105;47.964;7.982;2023-06-22T12:27:16;96527.50;;;29.10;34.90
47366;BME280;33105;47.964;7.982;2023-06-22T12:30:19;96528.53;;;28.92;35.09
47366;BME280;33105;47.964;7.982;2023-06-22T12:33:20;96541.78;;;28.91;37.99
47366;BME280;33105;47.964;7.982;2023-06-22T12:36:21;96550.16;;;28.84;39.49
47366;BME280;33105;47.964;7.982;2023-06-22T12:39:23;96569.13;;;28.61;37.59
47366;BME280;33105;47.964;7.982;2023-06-22T12:42:24;96596.56;;;28.37;45.67
47366;BME280;33105;47.964;7.982;2023-06-22T12:45:27;96587.28;;;28.07;52.05
47366;BME280;33105;47.964;7.982;2023-06-22T12:48:29;96600.69;;;27.41;54.86
47366;BME280;33105;47.964;7.982;2023-06-22T12:51:31;96597.16;;;27.48;56.68
47366;BME280;33105;47.964;7.982;2023-06-22T12:54:32;96599.94;;;27.22;58.33
47366;BME280;33105;47.964;7.982;2023-06-22T12:57:33;96584.41;;;27.28;58.09
47366;BME280;33105;47.964;7.982;2023-06-22T13:00:35;96575.63;;;27.06;58.01
47366;BME280;33105;47.964;7.982;2023-06-22T13:03:36;96567.88;;;27.23;58.13
47366;BME280;33105;47.964;7.982;2023-06-22T13:06:37;96574.91;;;26.90;56.64
47366;BME280;33105;47.964;7.982;2023-06-22T13:09:39;96578.88;;;26.89;53.65
47366;BME280;33105;47.964;7.982;2023-06-22T13:12:40;96571.94;;;27.02;53.85
47366;BME280;33105;47.964;7.982;2023-06-22T13:15:41;96575.25;;;27.31;56.34
47366;BME280;33105;47.964;7.982;2023-06-22T13:18:43;96564.88;;;27.35;53.83
47366;BME280;33105;47.964;7.982;2023-06-22T13:21:44;96557.16;;;27.05;53.79
47366;BME280;33105;47.964;7.982;2023-06-22T13:24:48;96552.34;;;26.83;53.35
47366;BME280;33105;47.964;7.982;2023-06-22T13:27:49;96552.03;;;26.88;53.49
47366;BME280;33105;47.964;7.982;2023-06-22T13:30:51;96558.84;;;27.10;53.44
47366;BME280;33105;47.964;7.982;2023-06-22T13:33:52;96563.34;;;27.15;53.06
47366;BME280;33105;47.964;7.982;2023-06-22T13:36:53;96568.28;;;27.21;53.43
47366;BME280;33105;47.964;7.982;2023-06-22T13:39:54;96561.47;;;27.22;54.52
47366;BME280;33105;47.964;7.982;2023-06-22T13:42:57;96564.47;;;27.10;53.72
47366;BME280;33105;47.964;7.982;2023-06-22T13:45:58;96570.38;;;27.05;54.53
47366;BME280;33105;47.964;7.982;2023-06-22T13:48:59;96582.16;;;26.72;55.92
47366;BME280;33105;47.964;7.982;2023-06-22T13:52:01;96597.50;;;26.97;55.40
47366;BME280;33105;47.964;7.982;2023-06-22T13:55:04;96606.91;;;26.89;55.74
47366;BME280;33105;47.964;7.982;2023-06-22T13:58:07;96593.19;;;26.42;56.84
47366;BME280;33105;47.964;7.982;2023-06-22T14:01:09;96579.06;;;26.19;57.02
47366;BME280;33105;47.964;7.982;2023-06-22T14:04:10;96563.56;;;26.06;58.37
47366;BME280;33105;47.964;7.982;2023-06-22T14:07:11;96544.13;;;25.94;59.01
47366;BME280;33105;47.964;7.982;2023-06-22T14:10:12;96533.09;;;25.50;58.63
47366;BME280;33105;47.964;7.982;2023-06-22T14:13:14;96534.09;;;25.42;59.44
47366;BME280;33105;47.964;7.982;2023-06-22T14:16:15;96535.75;;;25.12;59.92
47366;BME280;33105;47.964;7.982;2023-06-22T14:19:19;96541.69;;;24.94;61.07
47366;BME280;33105;47.964;7.982;2023-06-22T14:22:21;96535.28;;;24.94;62.28
47366;BME280;33105;47.964;7.982;2023-06-22T14:25:22;96526.25;;;24.85;61.77
47366;BME280;33105;47.964;7.982;2023-06-22T14:28:24;96515.91;;;24.85;63.01
47366;BME280;33105;47.964;7.982;2023-06-22T14:31:25;96520.75;;;24.88;62.12
47366;BME280;33105;47.964;7.982;2023-06-22T14:34:26;96518.50;;;24.78;62.75
47366;BME280;33105;47.964;7.982;2023-06-22T14:37:27;96516.72;;;25.01;64.67
47366;BME280;33105;47.964;7.982;2023-06-22T14:40:28;96511.84;;;24.83;62.80
47366;BME280;33105;47.964;7.982;2023-06-22T14:43:29;96511.94;;;24.86;64.77
47366;BME280;33105;47.964;7.982;2023-06-22T14:46:31;96518.22;;;24.83;67.56
47366;BME280;33105;47.964;7.982;2023-06-22T14:49:32;96522.78;;;25.03;70.89
47366;BME280;33105;47.964;7.982;2023-06-22T14:52:33;96509.81;;;24.95;68.62
47366;BME280;33105;47.964;7.982;2023-06-22T14:55:35;96525.72;;;25.26;71.02
47366;BME280;33105;47.964;7.982;2023-06-22T14:58:36;96524.13;;;24.34;73.32
47366;BME280;33105;47.964;7.982;2023-06-22T15:01:37;96526.97;;;24.66;72.19
47366;BME280;33105;47.964;7.982;2023-06-22T15:04:39;96525.91;;;24.15;66.06
47366;BME280;33105;47.964;7.982;2023-06-22T15:07:40;96524.91;;;24.07;62.51
47366;BME280;33105;47.964;7.982;2023-06-22T15:10:41;96516.13;;;23.93;62.72
47366;BME280;33105;47.964;7.982;2023-06-22T15:13:43;96508.47;;;23.78;64.52
47366;BME280;33105;47.964;7.982;2023-06-22T15:16:44;96511.72;;;23.80;61.47
47366;BME280;33105;47.964;7.982;2023-06-22T15:19:45;96525.88;;;23.99;58.39
47366;BME280;33105;47.964;7.982;2023-06-22T15:22:46;96516.75;;;24.14;66.38
47366;BME280;33105;47.964;7.982;2023-06-22T15:25:47;96489.34;;;24.32;63.60
47366;BME280;33105;47.964;7.982;2023-06-22T15:28:49;96495.47;;;24.37;62.06
47366;BME280;33105;47.964;7.982;2023-06-22T15:31:51;96494.06;;;24.44;62.12
47366;BME280;33105;47.964;7.982;2023-06-22T15:34:52;96500.16;;;24.33;60.09
47366;BME280;33105;47.964;7.982;2023-06-22T15:37:54;96502.88;;;24.18;59.68
47366;BME280;33105;47.964;7.982;2023-06-22T15:40:56;96494.19;;;24.07;59.99
47366;BME280;33105;47.964;7.982;2023-06-22T15:43:57;96494.06;;;23.88;62.82
47366;BME280;33105;47.964;7.982;2023-06-22T15:46:58;96478.22;;;23.92;59.43
47366;BME280;33105;47.964;7.982;2023-06-22T15:49:59;96484.50;;;23.89;59.39
47366;BME280;33105;47.964;7.982;2023-06-22T15:53:01;96474.81;;;23.70;62.62
47366;BME280;33105;47.964;7.982;2023-06-22T15:56:02;96481.34;;;23.62;65.28
47366;BME280;33105;47.964;7.982;2023-06-22T15:59:03;96478.09;;;23.60;65.38
47366;BME280;33105;47.964;7.982;2023-06-22T16:02:06;96488.03;;;23.21;66.99
47366;BME280;33105;47.964;7.982;2023-06-22T16:05:07;96496.38;;;23.21;68.49
47366;BME280;33105;47.964;7.982;2023-06-22T16:08:10;96498.56;;;23.03;67.57